Time;durP1;ratioP1;P1;durP2;ratioP2;P2;SDS_P1;SDS_P2;PMS_P1;PMS_P2;Temp;Humidity;BMP_temperature;BMP_pressure;BME280_temperature;BME280_humidity;BME280_pressure;Samples;Min_cycle;Max_cycle;Signal;HPM_P1;HPM_P2
2022/12/26 00:00:33;;;;;;;0.20;0.10;;;;;;;;;;5044853;28;20109;-82
2022/12/26 00:02:59;;;;;;;0.20;0.10;;;;;;;;;;5027486;28;20142;-83
2022/12/26 00:05:25;;;;;;;0.20;0.13;;;;;;;;;;5029052;28;20282;-83
2022/12/26 00:07:51;;;;;;;0.20;0.10;;;;;;;;;;5044486;28;20037;-83
2022/12/26 00:10:17;;;;;;;0.20;0.10;;;;;;;;;;5048004;28;20033;-83
2022/12/26 00:12:43;;;;;;;0.20;0.10;;;;;;;;;;5025980;28;20050;-83
2022/12/26 00:15:09;;;;;;;0.20;0.10;;;;;;;;;;5025795;28;20042;-83
2022/12/26 00:17:35;;;;;;;0.20;0.10;;;;;;;;;;5026818;28;20041;-83
2022/12/26 00:20:01;;;;;;;0.20;0.10;;;;;;;;;;5042805;28;20064;-83
2022/12/26 00:22:27;;;;;;;0.20;0.10;;;;;;;;;;5030130;28;20564;-83
2022/12/26 00:24:53;;;;;;;0.20;0.10;;;;;;;;;;5029954;28;20033;-83
2022/12/26 00:27:19;;;;;;;0.20;0.10;;;;;;;;;;5026536;28;20053;-83
2022/12/26 00:29:47;;;;;;;0.20;0.10;;;;;;;;;;5042974;28;20078;-83
2022/12/26 00:32:13;;;;;;;0.20;0.10;;;;;;;;;;5049512;28;20037;-83
2022/12/26 00:34:39;;;;;;;0.20;0.10;;;;;;;;;;5030010;28;20128;-83
2022/12/26 00:37:05;;;;;;;0.20;0.10;;;;;;;;;;5027664;28;20477;-83
2022/12/26 00:39:31;;;;;;;0.20;0.10;;;;;;;;;;5046491;28;20036;-82
2022/12/26 00:41:57;;;;;;;0.20;0.10;;;;;;;;;;5050170;28;20037;-82
2022/12/26 00:44:23;;;;;;;0.30;0.25;;;;;;;;;;5054471;28;20043;-83
2022/12/26 00:46:49;;;;;;;0.20;0.10;;;;;;;;;;5046074;28;20037;-83
2022/12/26 00:49:15;;;;;;;0.25;0.15;;;;;;;;;;5030749;28;20040;-83
2022/12/26 00:51:41;;;;;;;0.20;0.10;;;;;;;;;;5030894;28;20974;-83
2022/12/26 00:54:07;;;;;;;0.20;0.10;;;;;;;;;;5056673;28;20056;-83
2022/12/26 00:56:33;;;;;;;0.20;0.10;;;;;;;;;;5047709;28;20053;-83
2022/12/26 00:58:59;;;;;;;0.20;0.10;;;;;;;;;;5028685;28;20047;-83
2022/12/26 01:01:25;;;;;;;0.20;0.10;;;;;;;;;;5052531;28;20296;-83
2022/12/26 01:03:51;;;;;;;0.20;0.10;;;;;;;;;;5028668;28;20036;-83
2022/12/26 01:06:18;;;;;;;0.20;0.10;;;;;;;;;;5048791;28;20083;-83
2022/12/26 01:08:44;;;;;;;0.38;0.30;;;;;;;;;;5044722;28;20041;-83
2022/12/26 01:11:11;;;;;;;0.20;0.10;;;;;;;;;;5049541;28;20037;-83
2022/12/26 01:13:37;;;;;;;0.20;0.10;;;;;;;;;;5025665;28;20450;-83
2022/12/26 01:16:04;;;;;;;0.20;0.10;;;;;;;;;;5047000;28;20033;-84
2022/12/26 01:18:30;;;;;;;0.30;0.25;;;;;;;;;;5032642;28;20079;-82
2022/12/26 01:20:58;;;;;;;0.20;0.10;;;;;;;;;;5033967;28;20045;-84
2022/12/26 01:23:24;;;;;;;0.20;0.10;;;;;;;;;;5031338;28;20049;-84
2022/12/26 01:25:50;;;;;;;0.20;0.10;;;;;;;;;;5026978;28;20103;-86
2022/12/26 01:28:16;;;;;;;0.20;0.10;;;;;;;;;;5044789;28;20032;-84
2022/12/26 01:30:42;;;;;;;0.20;0.10;;;;;;;;;;5024523;28;20068;-84
2022/12/26 01:33:08;;;;;;;0.20;0.10;;;;;;;;;;5045398;28;20067;-83
2022/12/26 01:35:34;;;;;;;0.30;0.20;;;;;;;;;;5026133;28;20473;-84
2022/12/26 01:38:05;;;;;;;0.20;0.13;;;;;;;;;;5027727;28;20544;-85
2022/12/26 01:40:31;;;;;;;0.20;0.10;;;;;;;;;;5043237;28;20099;-83
2022/12/26 01:42:57;;;;;;;0.20;0.10;;;;;;;;;;5044872;28;20045;-83
2022/12/26 01:45:30;;;;;;;0.20;0.10;;;;;;;;;;5043432;28;20068;-85
2022/12/26 01:48:20;;;;;;;0.20;0.10;;;;;;;;;;5025841;28;20407;-85
2022/12/26 01:51:01;;;;;;;0.20;0.10;;;;;;;;;;5046496;28;20041;-84
2022/12/26 01:53:42;;;;;;;0.20;0.10;;;;;;;;;;5036590;28;20521;-84
2022/12/26 01:56:15;;;;;;;0.20;0.10;;;;;;;;;;5040162;28;20041;-84
2022/12/26 01:58:48;;;;;;;0.20;0.10;;;;;;;;;;5034819;28;20052;-85
2022/12/26 02:01:14;;;;;;;0.20;0.10;;;;;;;;;;5045726;28;20124;-84
2022/12/26 02:06:37;;;;;;;0.20;0.10;;;;;;;;;;5042903;28;20056;-84
2022/12/26 02:09:05;;;;;;;0.20;0.10;;;;;;;;;;5026257;28;20076;-84
2022/12/26 02:11:33;;;;;;;0.20;0.17;;;;;;;;;;5044532;28;20033;-84
2022/12/26 02:14:01;;;;;;;0.20;0.10;;;;;;;;;;5064563;28;20053;-85
2022/12/26 02:16:28;;;;;;;0.28;0.28;;;;;;;;;;5031359;28;20051;-85
2022/12/26 02:18:57;;;;;;;0.20;0.10;;;;;;;;;;5044149;28;20059;-87
2022/12/26 02:22:02;;;;;;;0.20;0.10;;;;;;;;;;5027277;28;20051;-85
2022/12/26 02:24:43;;;;;;;0.20;0.10;;;;;;;;;;4935895;28;20096;-84
2022/12/26 02:27:12;;;;;;;0.20;0.10;;;;;;;;;;4931635;28;20378;-84
2022/12/26 02:29:47;;;;;;;0.20;0.10;;;;;;;;;;4983725;28;20112;-85
2022/12/26 02:32:32;;;;;;;0.20;0.10;;;;;;;;;;5029477;28;20041;-87
2022/12/26 02:35:21;;;;;;;0.20;0.10;;;;;;;;;;5041311;28;20072;-84
2022/12/26 02:37:59;;;;;;;0.20;0.10;;;;;;;;;;5024187;28;20671;-84
2022/12/26 02:40:31;;;;;;;0.20;0.10;;;;;;;;;;5048446;28;20088;-84
2022/12/26 02:42:58;;;;;;;0.20;0.10;;;;;;;;;;5043150;28;20301;-83
2022/12/26 02:48:20;;;;;;;0.20;0.10;;;;;;;;;;5046315;28;20044;-83
2022/12/26 03:14:00;;;;;;;0.20;0.10;;;;;;;;;;5074818;28;20373;-90
2022/12/26 03:19:11;;;;;;;0.28;0.17;;;;;;;;;;5059903;28;20076;-86
2022/12/26 03:21:40;;;;;;;0.40;0.30;;;;;;;;;;5068239;28;20044;-88
2022/12/26 03:24:09;;;;;;;0.20;0.10;;;;;;;;;;5059693;28;20123;-86
2022/12/26 03:26:40;;;;;;;0.20;0.10;;;;;;;;;;5053965;28;20039;-86
2022/12/26 03:31:52;;;;;;;0.93;0.50;;;;;;;;;;5058251;28;20080;-86
2022/12/26 03:34:18;;;;;;;0.85;0.85;;;;;;;;;;5056820;28;20037;-88
2022/12/26 03:36:59;;;;;;;0.22;0.22;;;;;;;;;;5059973;28;20123;-89
2022/12/26 04:19:31;;;;;;;0.40;0.30;;;;;;;;;;5057183;28;20044;-86
2022/12/26 04:44:24;;;;;;;0.30;0.20;;;;;;;;;;5050864;28;20410;-87
2022/12/26 04:46:50;;;;;;;0.20;0.20;;;;;;;;;;5054099;28;20171;-87
2022/12/26 04:52:03;;;;;;;0.30;0.20;;;;;;;;;;5053568;28;20072;-88
2022/12/26 04:54:29;;;;;;;0.25;0.20;;;;;;;;;;5067130;28;20047;-87
2022/12/26 04:56:58;;;;;;;0.20;0.17;;;;;;;;;;5053125;28;20037;-88
2022/12/26 04:59:25;;;;;;;0.90;0.90;;;;;;;;;;5053793;28;20529;-87
2022/12/26 05:10:29;;;;;;;0.35;0.35;;;;;;;;;;5051031;28;20036;-86
2022/12/26 05:12:55;;;;;;;0.20;0.10;;;;;;;;;;5032693;28;20495;-87
2022/12/26 05:15:22;;;;;;;0.32;0.32;;;;;;;;;;5049987;28;20059;-85
2022/12/26 05:29:00;;;;;;;0.30;0.30;;;;;;;;;;5058304;28;20064;-87
2022/12/26 05:31:26;;;;;;;0.20;0.20;;;;;;;;;;5054200;28;20491;-87
2022/12/26 05:36:35;;;;;;;0.52;0.30;;;;;;;;;;5052572;28;20060;-89
2022/12/26 05:39:07;;;;;;;0.20;0.15;;;;;;;;;;5035497;28;20036;-89
2022/12/26 05:41:33;;;;;;;0.20;0.10;;;;;;;;;;5039687;28;20044;-86
2022/12/26 05:43:59;;;;;;;0.20;0.20;;;;;;;;;;5040086;28;20043;-88
2022/12/26 05:46:32;;;;;;;0.20;0.10;;;;;;;;;;5032845;28;20075;-88
2022/12/26 05:49:10;;;;;;;0.20;0.10;;;;;;;;;;5045194;28;20032;-87
2022/12/26 05:52:05;;;;;;;0.55;0.52;;;;;;;;;;5040763;28;20070;-87
2022/12/26 05:54:31;;;;;;;0.20;0.13;;;;;;;;;;5037418;28;20086;-84
2022/12/26 05:57:09;;;;;;;0.20;0.10;;;;;;;;;;5053316;28;20459;-89
2022/12/26 05:59:44;;;;;;;0.20;0.20;;;;;;;;;;5039653;28;20071;-88
2022/12/26 06:02:20;;;;;;;0.20;0.10;;;;;;;;;;5070416;28;20091;-88
2022/12/26 06:04:46;;;;;;;1.15;1.05;;;;;;;;;;5051395;28;20052;-86
2022/12/26 06:07:14;;;;;;;0.30;0.20;;;;;;;;;;5056706;28;20162;-88
2022/12/26 06:09:40;;;;;;;0.90;0.80;;;;;;;;;;5054177;28;20059;-88
2022/12/26 06:12:06;;;;;;;0.35;0.35;;;;;;;;;;5050718;28;20037;-86
2022/12/26 06:14:41;;;;;;;0.20;0.10;;;;;;;;;;5056392;28;20055;-87
2022/12/26 06:17:10;;;;;;;0.20;0.10;;;;;;;;;;5059031;28;20393;-86
2022/12/26 06:19:36;;;;;;;1.20;0.90;;;;;;;;;;5057541;28;20076;-87
2022/12/26 06:22:08;;;;;;;0.60;0.60;;;;;;;;;;5041540;28;20809;-91
2022/12/26 06:24:34;;;;;;;0.20;0.13;;;;;;;;;;5050299;28;20063;-88
2022/12/26 06:27:03;;;;;;;0.20;0.10;;;;;;;;;;5041428;28;20399;-87
2022/12/26 06:29:29;;;;;;;0.20;0.20;;;;;;;;;;5042129;28;20402;-87
2022/12/26 06:31:55;;;;;;;1.13;0.50;;;;;;;;;;5034239;28;20048;-86
2022/12/26 06:34:21;;;;;;;1.85;0.30;;;;;;;;;;5041779;28;20778;-86
2022/12/26 06:36:47;;;;;;;0.20;0.20;;;;;;;;;;5057515;28;20060;-88
2022/12/26 06:39:13;;;;;;;0.52;0.52;;;;;;;;;;5042812;28;20036;-86
2022/12/26 06:41:42;;;;;;;0.20;0.10;;;;;;;;;;5039072;28;20045;-85
2022/12/26 06:44:09;;;;;;;0.20;0.10;;;;;;;;;;5055035;28;20080;-88
2022/12/26 06:46:38;;;;;;;0.20;0.10;;;;;;;;;;5061088;28;20442;-85
2022/12/26 06:49:07;;;;;;;0.40;0.30;;;;;;;;;;5053193;28;20071;-88
2022/12/26 06:51:34;;;;;;;0.40;0.40;;;;;;;;;;5055508;28;20029;-88
2022/12/26 06:54:03;;;;;;;0.20;0.10;;;;;;;;;;5056669;28;20498;-88
2022/12/26 06:56:30;;;;;;;0.20;0.20;;;;;;;;;;5056203;28;20087;-88
2022/12/26 06:59:00;;;;;;;0.30;0.30;;;;;;;;;;5046058;28;20072;-86
2022/12/26 07:01:27;;;;;;;0.60;0.57;;;;;;;;;;5054935;28;20056;-86
2022/12/26 07:03:56;;;;;;;0.20;0.13;;;;;;;;;;5056578;28;20514;-89
2022/12/26 07:06:35;;;;;;;0.68;0.65;;;;;;;;;;5039592;28;20028;-88
2022/12/26 07:09:13;;;;;;;0.20;0.10;;;;;;;;;;5051783;28;20740;-87
2022/12/26 07:11:45;;;;;;;0.98;0.68;;;;;;;;;;5068699;28;20044;-89
2022/12/26 07:14:12;;;;;;;0.30;0.25;;;;;;;;;;5040923;28;20526;-88
2022/12/26 07:16:39;;;;;;;0.20;0.10;;;;;;;;;;5055797;28;20550;-86
2022/12/26 07:19:12;;;;;;;0.20;0.20;;;;;;;;;;5060780;28;20033;-86
2022/12/26 07:21:47;;;;;;;0.50;0.50;;;;;;;;;;5034922;28;20091;-87
2022/12/26 07:24:16;;;;;;;0.20;0.10;;;;;;;;;;5054212;28;20044;-87
2022/12/26 07:26:43;;;;;;;1.80;0.73;;;;;;;;;;5042677;28;20538;-85
2022/12/26 07:29:24;;;;;;;0.85;0.82;;;;;;;;;;5055236;28;20506;-87
2022/12/26 07:31:50;;;;;;;1.17;0.38;;;;;;;;;;5037404;28;20047;-87
2022/12/26 07:34:16;;;;;;;0.22;0.22;;;;;;;;;;5054535;28;20076;-87
2022/12/26 07:36:42;;;;;;;0.20;0.10;;;;;;;;;;5054991;28;20068;-87
2022/12/26 07:39:08;;;;;;;0.20;0.10;;;;;;;;;;5042762;28;20130;-90
2022/12/26 07:44:21;;;;;;;0.47;0.47;;;;;;;;;;5050729;28;20739;-85
2022/12/26 07:46:47;;;;;;;0.20;0.10;;;;;;;;;;5048898;28;20029;-86
2022/12/26 07:49:14;;;;;;;0.20;0.10;;;;;;;;;;5050236;28;20361;-88
2022/12/26 07:51:40;;;;;;;0.55;0.40;;;;;;;;;;5053582;28;20525;-87
2022/12/26 07:54:10;;;;;;;0.22;0.22;;;;;;;;;;5054475;28;20127;-86
2022/12/26 07:56:39;;;;;;;0.20;0.20;;;;;;;;;;5039692;28;20041;-88
2022/12/26 07:59:05;;;;;;;0.20;0.10;;;;;;;;;;5038272;28;20045;-89
2022/12/26 08:01:34;;;;;;;0.38;0.38;;;;;;;;;;5043043;28;20055;-87
2022/12/26 08:04:00;;;;;;;4.57;1.00;;;;;;;;;;5042446;28;20071;-88
2022/12/26 08:06:28;;;;;;;0.22;0.22;;;;;;;;;;5033608;28;20163;-89
2022/12/26 08:08:57;;;;;;;0.25;0.20;;;;;;;;;;5037069;28;20105;-90
2022/12/26 08:11:26;;;;;;;0.22;0.15;;;;;;;;;;5066530;28;20579;-87
2022/12/26 08:13:58;;;;;;;0.30;0.30;;;;;;;;;;5037869;28;20093;-87
2022/12/26 08:16:27;;;;;;;0.47;0.47;;;;;;;;;;5051572;28;20430;-87
2022/12/26 08:18:53;;;;;;;2.72;0.63;;;;;;;;;;5052368;28;20641;-88
2022/12/26 08:21:25;;;;;;;0.93;0.47;;;;;;;;;;5058986;28;20036;-88
2022/12/26 08:23:57;;;;;;;0.50;0.30;;;;;;;;;;5057762;28;20102;-88
2022/12/26 08:26:26;;;;;;;0.20;0.17;;;;;;;;;;5046559;28;20044;-86
2022/12/26 08:28:59;;;;;;;1.15;0.90;;;;;;;;;;5053685;28;20040;-87
2022/12/26 08:31:25;;;;;;;0.60;0.60;;;;;;;;;;5050107;28;20478;-88
2022/12/26 08:33:54;;;;;;;1.17;0.45;;;;;;;;;;5053260;28;20396;-87
2022/12/26 08:36:32;;;;;;;0.20;0.10;;;;;;;;;;5030076;28;20446;-89
2022/12/26 08:39:01;;;;;;;0.28;0.28;;;;;;;;;;5042731;28;20036;-86
2022/12/26 08:41:27;;;;;;;0.40;0.40;;;;;;;;;;5075433;28;20043;-86
2022/12/26 08:43:53;;;;;;;0.40;0.30;;;;;;;;;;5056664;22;20090;-86
2022/12/26 08:46:19;;;;;;;0.90;0.60;;;;;;;;;;5062304;28;20036;-87
2022/12/26 08:48:49;;;;;;;0.20;0.10;;;;;;;;;;5082697;28;20097;-85
2022/12/26 08:51:19;;;;;;;0.20;0.15;;;;;;;;;;5064277;28;20043;-86
2022/12/26 08:53:55;;;;;;;0.77;0.68;;;;;;;;;;5060116;28;20123;-87
2022/12/26 09:07:36;;;;;;;0.65;0.65;;;;;;;;;;5062674;28;20054;-92
2022/12/26 09:10:12;;;;;;;0.47;0.30;;;;;;;;;;5031722;28;20045;-87
2022/12/26 09:15:41;;;;;;;0.25;0.20;;;;;;;;;;5046934;28;20052;-88
2022/12/26 09:18:15;;;;;;;0.30;0.30;;;;;;;;;;5029098;28;20044;-90
2022/12/26 09:20:46;;;;;;;0.22;0.13;;;;;;;;;;5027195;28;20048;-89
2022/12/26 09:23:42;;;;;;;0.20;0.10;;;;;;;;;;5037489;28;20056;-89
2022/12/26 09:26:55;;;;;;;0.20;0.15;;;;;;;;;;5030425;28;20127;-90
2022/12/26 09:29:29;;;;;;;0.20;0.10;;;;;;;;;;5040590;28;20095;-89
2022/12/26 09:35:16;;;;;;;0.20;0.10;;;;;;;;;;5045334;28;20281;-91
2022/12/26 09:37:55;;;;;;;1.10;0.43;;;;;;;;;;5024277;28;20064;-90
2022/12/26 09:40:32;;;;;;;0.20;0.10;;;;;;;;;;5038783;28;20415;-88
2022/12/26 09:43:23;;;;;;;0.20;0.10;;;;;;;;;;5024366;28;20037;-90
2022/12/26 09:46:06;;;;;;;0.20;0.10;;;;;;;;;;5040437;28;20075;-90
2022/12/26 09:49:28;;;;;;;0.20;0.20;;;;;;;;;;5026323;28;20538;-89
2022/12/26 09:52:15;;;;;;;0.22;0.20;;;;;;;;;;4951021;28;20090;-91
2022/12/26 09:55:07;;;;;;;0.20;0.20;;;;;;;;;;4962716;28;20053;-90
2022/12/26 09:57:55;;;;;;;0.27;0.27;;;;;;;;;;4984627;28;20398;-88
2022/12/26 10:00:47;;;;;;;0.20;0.10;;;;;;;;;;5041936;28;20295;-89
2022/12/26 10:03:55;;;;;;;;;;;;;;;;;;;;;
2022/12/26 10:14:38;;;;;;;0.20;0.10;;;;;;;;;;5062136;28;20443;-89
2022/12/26 10:17:26;;;;;;;0.20;0.10;;;;;;;;;;5066855;22;20117;-86
2022/12/26 10:20:08;;;;;;;0.20;0.10;;;;;;;;;;5044831;28;20074;-84
2022/12/26 10:22:53;;;;;;;0.40;0.40;;;;;;;;;;5045717;28;20578;-86
2022/12/26 10:25:41;;;;;;;0.43;0.17;;;;;;;;;;5044729;28;20064;-88
2022/12/26 10:28:36;;;;;;;2.25;0.45;;;;;;;;;;5052168;28;20403;-86
2022/12/26 10:31:04;;;;;;;0.20;0.10;;;;;;;;;;5061728;22;20043;-86
2022/12/26 10:33:42;;;;;;;0.20;0.10;;;;;;;;;;5039188;28;20033;-87
2022/12/26 10:36:15;;;;;;;0.20;0.10;;;;;;;;;;5038496;28;20268;-87
2022/12/26 10:38:43;;;;;;;0.20;0.10;;;;;;;;;;5027967;28;20048;-84
2022/12/26 10:41:13;;;;;;;0.20;0.10;;;;;;;;;;5010902;28;20873;-84
2022/12/26 10:43:43;;;;;;;0.20;0.10;;;;;;;;;;5001806;28;20457;-86
2022/12/26 10:46:25;;;;;;;0.20;0.10;;;;;;;;;;5014774;28;20091;-84
2022/12/26 10:48:51;;;;;;;0.20;0.10;;;;;;;;;;5018086;28;20045;-85
2022/12/26 10:51:17;;;;;;;0.20;0.10;;;;;;;;;;4999965;28;20069;-82
2022/12/26 10:53:46;;;;;;;0.20;0.10;;;;;;;;;;5017529;28;20124;-85
2022/12/26 10:56:12;;;;;;;0.20;0.10;;;;;;;;;;4998145;28;20094;-84
2022/12/26 10:58:39;;;;;;;0.20;0.10;;;;;;;;;;5008701;28;20037;-86
2022/12/26 11:01:24;;;;;;;0.20;0.10;;;;;;;;;;5038435;28;20073;-86
2022/12/26 11:03:57;;;;;;;0.20;0.10;;;;;;;;;;5018935;28;20447;-87
2022/12/26 11:06:42;;;;;;;0.20;0.10;;;;;;;;;;5020730;28;20048;-85
2022/12/26 11:09:23;;;;;;;0.20;0.10;;;;;;;;;;5027439;28;20041;-85
2022/12/26 11:11:51;;;;;;;0.20;0.10;;;;;;;;;;5013674;28;20041;-84
2022/12/26 11:14:29;;;;;;;0.20;0.10;;;;;;;;;;5025282;28;20052;-87
2022/12/26 11:16:58;;;;;;;0.20;0.10;;;;;;;;;;5017944;28;20052;-84
2022/12/26 11:19:29;;;;;;;0.20;0.10;;;;;;;;;;5022482;28;20073;-87
2022/12/26 11:22:13;;;;;;;0.20;0.10;;;;;;;;;;5008345;28;20045;-86
2022/12/26 11:24:42;;;;;;;0.20;0.10;;;;;;;;;;5036324;28;20050;-87
2022/12/26 11:27:19;;;;;;;0.20;0.10;;;;;;;;;;5006111;28;20041;-86
2022/12/26 11:29:45;;;;;;;0.20;0.10;;;;;;;;;;5007837;28;20515;-87
2022/12/26 11:32:18;;;;;;;0.20;0.10;;;;;;;;;;5018765;28;20956;-86
2022/12/26 11:34:46;;;;;;;0.20;0.10;;;;;;;;;;5023896;28;20124;-87
2022/12/26 11:37:26;;;;;;;0.20;0.10;;;;;;;;;;5009264;28;20144;-87
2022/12/26 11:39:52;;;;;;;0.20;0.10;;;;;;;;;;5022671;28;20052;-85
2022/12/26 11:42:21;;;;;;;3.15;0.32;;;;;;;;;;5022887;28;20087;-85
2022/12/26 11:44:51;;;;;;;0.20;0.10;;;;;;;;;;5018997;28;20042;-88
2022/12/26 11:47:19;;;;;;;1.38;1.02;;;;;;;;;;5018440;28;20036;-85
2022/12/26 11:49:48;;;;;;;0.20;0.10;;;;;;;;;;5018711;28;20049;-84
2022/12/26 11:52:29;;;;;;;0.20;0.10;;;;;;;;;;5005636;28;20052;-86
2022/12/26 11:54:59;;;;;;;0.20;0.10;;;;;;;;;;5019845;28;20130;-89
2022/12/26 11:57:29;;;;;;;0.20;0.10;;;;;;;;;;5002079;28;20567;-87
2022/12/26 12:00:13;;;;;;;0.20;0.10;;;;;;;;;;5016425;28;20065;-84
2022/12/26 12:02:40;;;;;;;0.20;0.10;;;;;;;;;;5002041;28;20033;-83
2022/12/26 12:05:12;;;;;;;0.20;0.10;;;;;;;;;;5004907;28;20073;-84
2022/12/26 12:07:47;;;;;;;0.20;0.10;;;;;;;;;;4997362;28;21353;-83
2022/12/26 12:10:31;;;;;;;0.20;0.10;;;;;;;;;;4995639;28;20092;-86
2022/12/26 12:12:57;;;;;;;0.20;0.10;;;;;;;;;;5013239;28;20052;-86
2022/12/26 12:15:28;;;;;;;0.20;0.10;;;;;;;;;;4998951;28;20518;-87
2022/12/26 12:18:11;;;;;;;0.20;0.10;;;;;;;;;;5020560;28;20037;-85
2022/12/26 12:20:49;;;;;;;0.20;0.10;;;;;;;;;;5009572;28;20049;-85
2022/12/26 12:23:15;;;;;;;0.20;0.10;;;;;;;;;;5026941;28;20038;-85
2022/12/26 12:25:46;;;;;;;0.20;0.10;;;;;;;;;;5026042;28;20049;-85
2022/12/26 12:28:12;;;;;;;0.20;0.10;;;;;;;;;;5023191;28;20404;-89
2022/12/26 12:30:44;;;;;;;0.20;0.10;;;;;;;;;;5005003;28;20037;-85
2022/12/26 12:33:40;;;;;;;0.20;0.10;;;;;;;;;;5022830;28;20041;-88
2022/12/26 12:36:06;;;;;;;0.20;0.10;;;;;;;;;;5018741;28;20765;-85
2022/12/26 12:38:32;;;;;;;0.20;0.10;;;;;;;;;;5022824;28;20041;-86
2022/12/26 12:41:01;;;;;;;0.20;0.10;;;;;;;;;;5001371;28;20040;-85
2022/12/26 12:43:47;;;;;;;0.20;0.10;;;;;;;;;;4995715;28;20045;-88
2022/12/26 12:46:22;;;;;;;0.20;0.10;;;;;;;;;;5011736;28;20049;-85
2022/12/26 12:48:48;;;;;;;0.20;0.10;;;;;;;;;;4996914;28;20099;-84
2022/12/26 12:51:21;;;;;;;0.20;0.10;;;;;;;;;;5002745;28;20041;-84
2022/12/26 12:53:46;;;;;;;;;;;;;;;;;;5023036;28;20085;-85
2022/12/26 12:56:26;;;;;;;0.20;0.10;;;;;;;;;;5004920;28;20399;-86
2022/12/26 12:59:01;;;;;;;0.85;0.32;;;;;;;;;;5017683;28;20091;-85
2022/12/26 13:01:32;;;;;;;0.20;0.10;;;;;;;;;;5019093;28;20069;-83
2022/12/26 13:04:03;;;;;;;0.20;0.10;;;;;;;;;;5016726;28;20041;-84
2022/12/26 13:06:40;;;;;;;0.20;0.10;;;;;;;;;;5014821;28;20045;-83
2022/12/26 13:09:12;;;;;;;0.20;0.10;;;;;;;;;;5003674;28;20037;-83
2022/12/26 13:11:43;;;;;;;0.20;0.10;;;;;;;;;;5004419;28;20056;-88
2022/12/26 13:14:13;;;;;;;0.20;0.20;;;;;;;;;;5020659;28;20664;-86
2022/12/26 13:16:42;;;;;;;0.20;0.10;;;;;;;;;;5017275;28;20033;-83
2022/12/26 13:19:19;;;;;;;0.20;0.10;;;;;;;;;;5025783;28;20373;-87
2022/12/26 13:21:46;;;;;;;0.20;0.10;;;;;;;;;;5000944;28;20038;-84
2022/12/26 13:24:24;;;;;;;0.20;0.10;;;;;;;;;;5024417;28;20068;-87
2022/12/26 13:26:50;;;;;;;0.20;0.10;;;;;;;;;;5021054;28;20041;-84
2022/12/26 13:29:18;;;;;;;0.20;0.10;;;;;;;;;;4997558;28;20048;-84
2022/12/26 13:31:45;;;;;;;0.20;0.10;;;;;;;;;;5016892;28;20052;-85
2022/12/26 13:34:18;;;;;;;0.20;0.10;;;;;;;;;;5003226;28;20030;-86
2022/12/26 13:36:51;;;;;;;0.20;0.10;;;;;;;;;;5024331;28;20136;-87
2022/12/26 13:39:27;;;;;;;0.20;0.10;;;;;;;;;;5007196;28;20409;-85
2022/12/26 13:44:44;;;;;;;0.20;0.10;;;;;;;;;;5021306;28;20045;-85
2022/12/26 13:47:29;;;;;;;0.30;0.28;;;;;;;;;;5006337;28;20034;-87
2022/12/26 13:49:55;;;;;;;0.20;0.10;;;;;;;;;;5007281;28;20029;-85
2022/12/26 13:52:21;;;;;;;0.20;0.10;;;;;;;;;;5010774;28;20037;-87
2022/12/26 13:54:47;;;;;;;0.20;0.10;;;;;;;;;;5003646;28;20051;-87
2022/12/26 13:57:13;;;;;;;0.20;0.10;;;;;;;;;;5004435;28;20069;-84
2022/12/26 13:59:44;;;;;;;0.20;0.10;;;;;;;;;;5019606;28;20507;-86
2022/12/26 14:02:27;;;;;;;0.20;0.10;;;;;;;;;;5004045;28;20034;-87
2022/12/26 14:05:12;;;;;;;0.20;0.10;;;;;;;;;;5026810;28;20037;-85
2022/12/26 14:07:46;;;;;;;0.20;0.10;;;;;;;;;;5005634;28;20033;-86
2022/12/26 14:10:15;;;;;;;0.20;0.10;;;;;;;;;;5006573;28;20038;-85
2022/12/26 14:13:02;;;;;;;0.20;0.10;;;;;;;;;;5018669;28;20052;-85
2022/12/26 14:15:28;;;;;;;0.20;0.10;;;;;;;;;;5003431;28;20094;-85
2022/12/26 14:18:13;;;;;;;0.20;0.10;;;;;;;;;;5020458;28;20041;-84
2022/12/26 14:20:39;;;;;;;0.20;0.10;;;;;;;;;;5013425;28;20041;-86
2022/12/26 14:23:11;;;;;;;0.20;0.10;;;;;;;;;;5020062;28;20095;-86
2022/12/26 14:25:51;;;;;;;0.20;0.10;;;;;;;;;;5034140;28;20045;-87
2022/12/26 14:28:36;;;;;;;0.20;0.10;;;;;;;;;;5014344;28;20037;-85
2022/12/26 14:31:11;;;;;;;0.20;0.10;;;;;;;;;;5016433;28;20116;-88
2022/12/26 14:33:42;;;;;;;0.20;0.10;;;;;;;;;;5018160;28;20487;-85
2022/12/26 14:36:16;;;;;;;0.20;0.10;;;;;;;;;;5013297;28;20056;-86
2022/12/26 14:38:58;;;;;;;0.20;0.10;;;;;;;;;;5033492;28;20793;-85
2022/12/26 14:44:21;;;;;;;0.20;0.10;;;;;;;;;;5018568;28;20456;-85
2022/12/26 14:46:50;;;;;;;0.20;0.10;;;;;;;;;;5016527;28;20048;-88
2022/12/26 14:49:22;;;;;;;0.20;0.10;;;;;;;;;;5016199;28;20037;-84
2022/12/26 14:51:49;;;;;;;0.20;0.10;;;;;;;;;;5002643;28;20038;-86
2022/12/26 14:54:20;;;;;;;0.20;0.10;;;;;;;;;;5007935;28;20033;-85
2022/12/26 14:56:47;;;;;;;0.20;0.20;;;;;;;;;;5020350;28;20048;-87
2022/12/26 14:59:32;;;;;;;0.20;0.10;;;;;;;;;;5017145;28;20495;-87
2022/12/26 15:02:22;;;;;;;0.20;0.10;;;;;;;;;;5015082;28;20048;-86
2022/12/26 15:04:54;;;;;;;0.20;0.10;;;;;;;;;;4989509;28;20061;-87
2022/12/26 15:07:20;;;;;;;;;;;;;;;;;;4993571;28;20045;-84
2022/12/26 15:10:09;;;;;;;0.20;0.10;;;;;;;;;;5013183;28;20629;-84
2022/12/26 15:12:47;;;;;;;0.20;0.10;;;;;;;;;;5016707;28;20057;-84
2022/12/26 15:15:16;;;;;;;0.20;0.10;;;;;;;;;;5017763;28;20038;-87
2022/12/26 15:17:48;;;;;;;0.20;0.10;;;;;;;;;;5031349;28;20099;-87
2022/12/26 15:20:34;;;;;;;0.85;0.75;;;;;;;;;;5015645;28;20076;-86
2022/12/26 15:23:06;;;;;;;0.20;0.10;;;;;;;;;;5015657;28;20492;-86
2022/12/26 15:25:35;;;;;;;0.20;0.10;;;;;;;;;;5029904;28;20507;-86
2022/12/26 15:28:13;;;;;;;0.20;0.10;;;;;;;;;;5018382;28;20049;-85
2022/12/26 15:30:42;;;;;;;0.20;0.10;;;;;;;;;;5002610;28;20038;-87
2022/12/26 15:33:22;;;;;;;0.20;0.10;;;;;;;;;;5018328;28;20046;-86
2022/12/26 15:35:51;;;;;;;0.20;0.10;;;;;;;;;;5014374;28;20042;-86
2022/12/26 15:38:41;;;;;;;0.20;0.10;;;;;;;;;;5025164;28;20049;-85
2022/12/26 15:41:10;;;;;;;0.20;0.10;;;;;;;;;;5010405;28;20132;-86
2022/12/26 15:44:00;;;;;;;0.20;0.10;;;;;;;;;;5016999;28;20087;-88
2022/12/26 15:46:31;;;;;;;0.20;0.10;;;;;;;;;;5002290;28;20236;-84
2022/12/26 15:49:09;;;;;;;0.20;0.10;;;;;;;;;;5018642;28;20657;-84
2022/12/26 15:51:59;;;;;;;0.20;0.10;;;;;;;;;;5002663;28;20033;-85
2022/12/26 15:54:51;;;;;;;0.20;0.10;;;;;;;;;;5002889;28;20232;-86
2022/12/26 15:57:17;;;;;;;0.20;0.10;;;;;;;;;;5012000;28;20064;-86
2022/12/26 16:00:02;;;;;;;0.20;0.10;;;;;;;;;;5014931;28;20042;-87
2022/12/26 16:02:28;;;;;;;0.20;0.10;;;;;;;;;;5006802;28;20040;-86
2022/12/26 16:05:07;;;;;;;0.20;0.10;;;;;;;;;;5022477;28;20037;-86
2022/12/26 16:07:52;;;;;;;0.20;0.10;;;;;;;;;;5000536;28;20059;-86
2022/12/26 16:10:25;;;;;;;0.20;0.10;;;;;;;;;;5035449;28;20045;-87
2022/12/26 16:13:19;;;;;;;0.20;0.10;;;;;;;;;;5008087;28;20078;-87
2022/12/26 16:15:55;;;;;;;0.20;0.10;;;;;;;;;;5004701;28;20333;-87
2022/12/26 16:18:25;;;;;;;0.20;0.10;;;;;;;;;;5021426;28;20593;-87
2022/12/26 16:23:39;;;;;;;0.20;0.10;;;;;;;;;;5017568;28;20073;-86
2022/12/26 16:26:05;;;;;;;0.20;0.10;;;;;;;;;;5006094;28;20082;-86
2022/12/26 16:28:34;;;;;;;0.20;0.10;;;;;;;;;;5006339;28;20034;-86
2022/12/26 16:31:00;;;;;;;0.20;0.10;;;;;;;;;;5002249;28;20046;-85
2022/12/26 16:33:40;;;;;;;0.20;0.10;;;;;;;;;;5023671;28;20064;-87
2022/12/26 16:36:20;;;;;;;0.20;0.10;;;;;;;;;;5018473;28;20034;-86
2022/12/26 16:38:46;;;;;;;0.20;0.10;;;;;;;;;;5006624;28;20168;-85
2022/12/26 16:41:29;;;;;;;0.20;0.10;;;;;;;;;;5023796;28;20045;-87
2022/12/26 16:43:57;;;;;;;0.20;0.10;;;;;;;;;;5021276;28;20034;-84
2022/12/26 16:46:25;;;;;;;0.20;0.10;;;;;;;;;;5019728;28;20124;-85
2022/12/26 16:48:58;;;;;;;0.20;0.10;;;;;;;;;;5026958;28;20492;-86
2022/12/26 16:51:32;;;;;;;0.20;0.10;;;;;;;;;;5024191;28;20036;-84
2022/12/26 16:54:14;;;;;;;0.20;0.10;;;;;;;;;;5022439;28;20047;-86
2022/12/26 16:56:40;;;;;;;0.20;0.10;;;;;;;;;;4998701;28;20429;-88
2022/12/26 16:59:13;;;;;;;0.20;0.10;;;;;;;;;;5001674;28;20037;-84
2022/12/26 17:01:40;;;;;;;0.20;0.10;;;;;;;;;;5023788;28;20503;-86
2022/12/26 17:04:12;;;;;;;0.20;0.10;;;;;;;;;;5023956;28;20044;-86
2022/12/26 17:06:51;;;;;;;0.20;0.10;;;;;;;;;;5021073;28;20045;-87
2022/12/26 17:09:18;;;;;;;0.20;0.10;;;;;;;;;;5002732;28;20155;-87
2022/12/26 17:11:53;;;;;;;0.20;0.10;;;;;;;;;;5026979;28;20674;-86
2022/12/26 17:14:21;;;;;;;0.20;0.10;;;;;;;;;;5009853;28;20052;-86
2022/12/26 17:16:55;;;;;;;0.20;0.10;;;;;;;;;;5022812;28;20436;-86
2022/12/26 17:19:25;;;;;;;0.20;0.10;;;;;;;;;;5018443;28;20503;-85
2022/12/26 17:22:13;;;;;;;0.20;0.10;;;;;;;;;;5021965;28;20549;-87
2022/12/26 17:24:40;;;;;;;0.20;0.10;;;;;;;;;;5005728;28;20099;-85
2022/12/26 17:27:08;;;;;;;0.20;0.10;;;;;;;;;;5001527;28;20041;-87
2022/12/26 17:29:54;;;;;;;0.20;0.10;;;;;;;;;;5021412;28;20562;-84
2022/12/26 17:32:40;;;;;;;0.20;0.10;;;;;;;;;;5002099;28;20508;-86
2022/12/26 17:35:10;;;;;;;0.20;0.10;;;;;;;;;;5018591;28;20163;-86
2022/12/26 17:37:36;;;;;;;0.20;0.10;;;;;;;;;;5021031;28;20037;-86
2022/12/26 17:40:06;;;;;;;0.20;0.10;;;;;;;;;;5022089;28;20053;-87
2022/12/26 17:42:49;;;;;;;0.20;0.10;;;;;;;;;;5020438;28;20111;-88
2022/12/26 17:45:25;;;;;;;0.20;0.10;;;;;;;;;;5008383;28;20208;-85
2022/12/26 17:47:54;;;;;;;0.20;0.10;;;;;;;;;;5003471;28;20045;-86
2022/12/26 17:50:30;;;;;;;0.20;0.10;;;;;;;;;;5020207;28;20034;-87
2022/12/26 17:53:04;;;;;;;0.20;0.10;;;;;;;;;;5019316;28;20123;-85
2022/12/26 17:55:30;;;;;;;0.20;0.10;;;;;;;;;;5004977;28;20068;-85